Decoded Metar for KAIA (ALLIANCE in NE, USA) (IATA:AIA) | Meteo·Mobile Aviation Weather
aviador You're here:

KAIA Decoded Metar

ALLIANCE in NE, USA
Report Time2018-10-20 07:53:00
UTC Time2018-10-20 08:27:51
Flight Rules vfr VFR
Wind280° at 03 kt
W.Decomp.*RWY 26: 3.0 kt HW 0.5 kt RCW
RWY 30: 2.6 kt HW 1.5 kt LCW
RWY 35: 0.5 kt HW 3 kt LCW
W.Rank280° ranks 3
Current wind is below 280° avg. (8.9)
Visibility9999 m
Phenomena:N/A
Clouds:N/A
Expected CloudBase > 800 ft AGL from Temp-Dew spread
CeilingNone
Temp-1°C (ISA -8)
Dew Point-3°C (86% RH)
AAT-4.5°C
QNH1028 hPa
Density Alt2,500 ft
Elevation3,924 ft
Report Wrong Elevation
Raw Report
KAIA 200753Z AUTO 28003KT 10SM CLR M01/M03 A3036 RMK AO2 SLP278
T10111028=

Extra information for KAIA:More info

Metar Taf Metar & Taf Last 4 Metars F.Rules Stats Wind Profile Meteogram Temp Stats Airport Information Weather charts Add Link Nearby VenuesMetar ALERT Operation Metar Decoded Social comments

AIRNAV info for KAIA